Lewisport, KY

3:21 AM CDT en Octubre 31, 2014 (GMT -0500)
RMR - Owensboro | Change Station
CLOSE
Current Station
Estación meteorológica personal
Location: Owensboro, KY
Altura: 387 ft
Estaciones meteorológicas cercanas
Aviso en curso: Freeze Watch, Special Statement

Alt 387 ft 37.83 °N, 87.02 °W | Updated 14 minutes ago

Nublado
Nublado
48.7 ° F
Sensación térmica 49 ° F
N
0.0
Viento Variable Viento desde ONO
Gusts 0.0 mph

Hoy
Alta -- | Baja -- ° F
--% Posibilidad de precipitaciones
Ayer
Alta -- | Baja -- ° F
Precip. -- pul
7:12 AM 5:49 PM
Cuarto creciente, 53% visible
Presión 30.01 pul
Visibilidad 10.0 Millas
Nubes Baja 6000 ft
Muy nublado 8500 ft
Vientos helados 49 ° F
Punto de rocío 44 ° F
Humedad 84%
Precipitaciones 0.00 pul
Espesor de la nieve No disponible.
UV 0 de una escala de 12
Polen .60 de una escala de 12
Calidad del aire No disponible.
Flu Activity No disponible.
METAR KOWB 310756Z AUTO 04004KT 10SM FEW060 BKN085 11/06 A3001 RMK AO2 TSNO T01050061 BKN V SCT SLP162

More Conditions Fewer Conditions

Presión 30.01 pul
Visibilidad 10.0 Millas
Nubes Baja 6000 ft
Muy nublado 8500 ft
Vientos helados 49 ° F
Punto de rocío 44 ° F
Humedad 84%
Precipitaciones 0.00 pul
Espesor de la nieve No disponible.
UV 0 de una escala de 12
Polen .60 de una escala de 12
Calidad del aire No disponible.
Flu Activity No disponible.
METAR KOWB 310756Z AUTO 04004KT 10SM FEW060 BKN085 11/06 A3001 RMK AO2 TSNO T01050061 BKN V SCT SLP162

More Conditions Fewer Conditions

10-Day Weather Forecast

Almanac

Astronomía

Oct. 31, 2014 Salida Puesta
Hora real
Crepúsculo civil
Crepúsculo náutico
Crepúsculo astronómico
Luna
Horas de luz
Horas de luz
Tomorrow will be .
, % of the Moon is Illuminated

Extremos de hoy

Máximos del estado Bajos del estado

Community

WunderPhotos

Upload Photos

1,766,573 ¡fotos cargadas!

WunderBlogs® & News

Nearby

Calidad del aire

  Calidad del aire Índice AQ Contaminante
Not available.

Grosos de nieve

Estación Profundido Altura

Actividad de terremotos

Ciudad Distance Mag. Tiempo y dato
Magnitud mínima muestra es 2,5.

Temperaturas de aguas costeras

Lugar Temperatura

Estaciones meteorológicas cercanas